Finlandia — OJPP — position and weather

sailwx.info

Track history (hours):
 
Tides and Currents Weather Stations Pressure Air Temp Water Temp Dewpoint Dewpoint Depression Visibility Wind Speed Wind Dir Waves Ship Positions

Finlandia

Last reported at 2014-Oct-01 17:33 UTC. Time now 2014-Oct-02 02:32 UTC.
Position N 59°47' E 024°49'.

Length 175 m; draft 7 m.

Type: Ship (hazmat cat A). MMSI: 230628000.

Date/timePositionNaut miles runAvg speedWind from/ knotsBaromVisibWave heightAir tempDewpointWater temp
2014-Oct-01 17:33N 59°47' E 024°49'2020.2
2014-Oct-01 16:33N 59°27' E 024°46'0 0.2
2014-Oct-01 15:33N 59°27' E 024°46'1110.6
2014-Oct-01 14:33N 59°37' E 024°40'11 2.5
2014-Oct-01 10:08N 59°47' E 024°50'1220.1
2014-Oct-01 09:34N 59°36' E 024°41'10 9.5
2014-Oct-01 08:33N 59°27' E 024°46'3 3.2
2014-Oct-01 07:34N 59°30' E 024°45'1919.2
2014-Oct-01 06:33N 59°49' E 024°47'5 0.4
2014-Sep-30 17:32N 59°44' E 024°47'1717.5
2014-Sep-30 16:33N 59°27' E 024°46'0 0.3
2014-Sep-30 15:33N 59°27' E 024°46'1211.6
2014-Sep-30 14:33N 59°38' E 024°40'2 0.4
2014-Sep-30 09:33N 59°36' E 024°41'10 9.6
2014-Sep-30 08:32N 59°27' E 024°46'4 3.7
2014-Sep-30 07:33N 59°30' E 024°44'13 0.9
2014-Sep-29 17:24N 59°43' E 024°47'1619.4
2014-Sep-29 16:33N 59°27' E 024°46'0 0.3
2014-Sep-29 15:33N 59°27' E 024°46'1010.5
2014-Sep-29 14:34N 59°37' E 024°40'9 2.1
2014-Sep-29 10:03N 59°45' E 024°48'1020.4
2014-Sep-29 09:33N 59°36' E 024°42'9 8.9
2014-Sep-29 08:32N 59°27' E 024°46'4 3.6
2014-Sep-29 07:31N 59°30' E 024°44'1819.0
2014-Sep-29 06:34N 59°49' E 024°45'2 0.1
2014-Sep-28 17:33N 59°49' E 024°47'2221.6
2014-Sep-28 16:34N 59°28' E 024°47'1 1.1
2014-Sep-28 15:32N 59°27' E 024°46'1010.5
2014-Sep-28 14:33N 59°36' E 024°40'14 3.4
2014-Sep-28 10:21N 59°50' E 024°46'1620.0
2014-Sep-28 09:34N 59°35' E 024°42'8 8.0
2014-Sep-28 08:33N 59°27' E 024°46'3 2.7
2014-Sep-28 07:33N 59°29' E 024°45'2019.1
2014-Sep-28 06:32N 59°49' E 024°46'2 0.1
2014-Sep-27 17:27N 59°48' E 024°49'1921.6
2014-Sep-27 16:34N 59°29' E 024°46'2 1.9
2014-Sep-27 15:31N 59°27' E 024°46'1010.6
2014-Sep-27 14:34N 59°36' E 024°40'1716.8
2014-Sep-27 13:34N 59°52' E 024°51'15 3.7
2014-Sep-27 09:34N 59°38' E 024°42'1111.2
2014-Sep-27 08:33N 59°27' E 024°46'  
2014-Sep-24 17:28N 59°47' E 024°48'2021.5
2014-Sep-24 16:34N 59°27' E 024°47'1 0.7
2014-Sep-24 15:33N 59°27' E 024°46'1111.2
2014-Sep-24 14:33N 59°37' E 024°40'14 3.2
2014-Sep-24 10:17N 59°50' E 024°48'1520.1
2014-Sep-24 09:33N 59°36' E 024°41'10 8.8
2014-Sep-24 08:28N 59°27' E 024°46'3 3.1
2014-Sep-24 07:33N 59°30' E 024°45'2019.9
2014-Sep-24 06:33N 59°49' E 024°47'6 0.4
2014-Sep-23 17:34N 59°44' E 024°43'1717.5
2014-Sep-23 16:33N 59°27' E 024°46'0 0.0
2014-Sep-23 15:33N 59°27' E 024°46'1211.5
2014-Sep-23 14:34N 59°38' E 024°40'2517.2
2014-Sep-23 13:05N 60°02' E 024°54'712.7
2014-Sep-23 12:33N 60°09' E 024°55'0 0.2
2014-Sep-23 11:33N 60°09' E 024°55'2416.8
2014-Sep-23 10:07N 59°45' E 024°49'1222.0
2014-Sep-23 09:33N 59°33' E 024°43'7 6.3
2014-Sep-23 08:31N 59°27' E 024°46'3 2.8
2014-Sep-23 07:33N 59°29' E 024°45'2020.1
2014-Sep-23 06:33N 59°49' E 024°47'2019.7
2014-Sep-23 05:33N 60°09' E 024°54'1 0.7
2014-Sep-23 04:32N 60°09' E 024°55'0 0.0
2014-Sep-23 03:32N 60°09' E 024°55'0 0.0
2014-Sep-23 02:32N 60°09' E 024°55'0 0.0
2014-Sep-23 01:32N 60°09' E 024°55'0 0.0
2014-Sep-23 00:32N 60°09' E 024°55'0 0.0
2014-Sep-22 23:32N 60°09' E 024°55'0 0.0
2014-Sep-22 22:32N 60°09' E 024°55'0 0.0
2014-Sep-22 21:32N 60°09' E 024°55'0 0.0
2014-Sep-22 20:32N 60°09' E 024°55'0 0.0
2014-Sep-22 19:32N 60°09' E 024°55'1 0.8
2014-Sep-22 18:33N 60°09' E 024°54'2221.7
2014-Sep-22 17:33N 59°47' E 024°49'2020.3
2014-Sep-22 16:34N 59°27' E 024°46'0 0.3
2014-Sep-22 15:33N 59°27' E 024°46'1211.6
2014-Sep-22 14:32N 59°38' E 024°40'2017.2
2014-Sep-22 13:23N 59°57' E 024°53'1214.8
2014-Sep-22 12:34N 60°09' E 024°55'0 0.3
2014-Sep-22 11:33N 60°09' E 024°55'2315.5
2014-Sep-22 10:04N 59°46' E 024°50'1120.3
2014-Sep-22 09:30N 59°36' E 024°41'9 6.9
2014-Sep-22 08:09N 59°27' E 024°46'4 7.0
2014-Sep-22 07:30N 59°31' E 024°43'1819.3
2014-Sep-22 06:33N 59°49' E 024°47'1919.2
2014-Sep-22 05:33N 60°08' E 024°54'1 1.1
2014-Sep-22 04:31N 60°09' E 024°55'0 0.0
2014-Sep-22 03:28N 60°09' E 024°55'0 0.0
2014-Sep-22 02:31N 60°09' E 024°55'0 0.0
2014-Sep-22 01:19N 60°09' E 024°55'0 0.0
2014-Sep-22 00:19N 60°09' E 024°55'0 0.0
2014-Sep-21 23:25N 60°09' E 024°55'0 0.0
2014-Sep-21 22:28N 60°09' E 024°55'0 0.0
2014-Sep-21 21:31N 60°09' E 024°55'0 0.0
2014-Sep-21 20:31N 60°09' E 024°55'0 0.0
2014-Sep-21 19:31N 60°09' E 024°55'0 0.3
2014-Sep-21 18:33N 60°09' E 024°55'2020.0
2014-Sep-21 17:33N 59°50' E 024°46'  
Track history (hours):
 
Tides and Currents Weather Stations Pressure Air Temp Water Temp Dewpoint Dewpoint Depression Visibility Wind Speed Wind Dir Waves Ship Positions

Finlandia

Last reported at 2014-Oct-01 17:33 UTC. Time now 2014-Oct-02 02:32 UTC.
Position N 59°47' E 024°49'.

Length 175 m; draft 7 m.

Type: Ship (hazmat cat A). MMSI: 230628000.

Date/timePositionNaut miles runAvg speedWind from/ knotsBaromVisibWave heightAir tempDewpointWater temp
2014-Oct-01 17:33N 59°47' E 024°49'2020.2
2014-Oct-01 16:33N 59°27' E 024°46'0 0.2
2014-Oct-01 15:33N 59°27' E 024°46'1110.6
2014-Oct-01 14:33N 59°37' E 024°40'11 2.5
2014-Oct-01 10:08N 59°47' E 024°50'1220.1
2014-Oct-01 09:34N 59°36' E 024°41'10 9.5
2014-Oct-01 08:33N 59°27' E 024°46'3 3.2
2014-Oct-01 07:34N 59°30' E 024°45'1919.2
2014-Oct-01 06:33N 59°49' E 024°47'5 0.4
2014-Sep-30 17:32N 59°44' E 024°47'1717.5
2014-Sep-30 16:33N 59°27' E 024°46'0 0.3
2014-Sep-30 15:33N 59°27' E 024°46'1211.6
2014-Sep-30 14:33N 59°38' E 024°40'2 0.4
2014-Sep-30 09:33N 59°36' E 024°41'10 9.6
2014-Sep-30 08:32N 59°27' E 024°46'4 3.7
2014-Sep-30 07:33N 59°30' E 024°44'13 0.9
2014-Sep-29 17:24N 59°43' E 024°47'1619.4
2014-Sep-29 16:33N 59°27' E 024°46'0 0.3
2014-Sep-29 15:33N 59°27' E 024°46'1010.5
2014-Sep-29 14:34N 59°37' E 024°40'9 2.1
2014-Sep-29 10:03N 59°45' E 024°48'1020.4
2014-Sep-29 09:33N 59°36' E 024°42'9 8.9
2014-Sep-29 08:32N 59°27' E 024°46'4 3.6
2014-Sep-29 07:31N 59°30' E 024°44'1819.0
2014-Sep-29 06:34N 59°49' E 024°45'2 0.1
2014-Sep-28 17:33N 59°49' E 024°47'2221.6
2014-Sep-28 16:34N 59°28' E 024°47'1 1.1
2014-Sep-28 15:32N 59°27' E 024°46'1010.5
2014-Sep-28 14:33N 59°36' E 024°40'14 3.4
2014-Sep-28 10:21N 59°50' E 024°46'1620.0
2014-Sep-28 09:34N 59°35' E 024°42'8 8.0
2014-Sep-28 08:33N 59°27' E 024°46'3 2.7
2014-Sep-28 07:33N 59°29' E 024°45'2019.1
2014-Sep-28 06:32N 59°49' E 024°46'2 0.1
2014-Sep-27 17:27N 59°48' E 024°49'1921.6
2014-Sep-27 16:34N 59°29' E 024°46'2 1.9
2014-Sep-27 15:31N 59°27' E 024°46'1010.6
2014-Sep-27 14:34N 59°36' E 024°40'1716.8
2014-Sep-27 13:34N 59°52' E 024°51'15 3.7
2014-Sep-27 09:34N 59°38' E 024°42'1111.2
2014-Sep-27 08:33N 59°27' E 024°46'  
2014-Sep-24 17:28N 59°47' E 024°48'2021.5
2014-Sep-24 16:34N 59°27' E 024°47'1 0.7
2014-Sep-24 15:33N 59°27' E 024°46'1111.2
2014-Sep-24 14:33N 59°37' E 024°40'14 3.2
2014-Sep-24 10:17N 59°50' E 024°48'1520.1
2014-Sep-24 09:33N 59°36' E 024°41'10 8.8
2014-Sep-24 08:28N 59°27' E 024°46'3 3.1
2014-Sep-24 07:33N 59°30' E 024°45'2019.9
2014-Sep-24 06:33N 59°49' E 024°47'6 0.4
2014-Sep-23 17:34N 59°44' E 024°43'1717.5
2014-Sep-23 16:33N 59°27' E 024°46'0 0.0
2014-Sep-23 15:33N 59°27' E 024°46'1211.5
2014-Sep-23 14:34N 59°38' E 024°40'2517.2
2014-Sep-23 13:05N 60°02' E 024°54'712.7
2014-Sep-23 12:33N 60°09' E 024°55'0 0.2
2014-Sep-23 11:33N 60°09' E 024°55'2416.8
2014-Sep-23 10:07N 59°45' E 024°49'1222.0
2014-Sep-23 09:33N 59°33' E 024°43'7 6.3
2014-Sep-23 08:31N 59°27' E 024°46'3 2.8
2014-Sep-23 07:33N 59°29' E 024°45'2020.1
2014-Sep-23 06:33N 59°49' E 024°47'2019.7
2014-Sep-23 05:33N 60°09' E 024°54'1 0.7
2014-Sep-23 04:32N 60°09' E 024°55'0 0.0
2014-Sep-23 03:32N 60°09' E 024°55'0 0.0
2014-Sep-23 02:32N 60°09' E 024°55'0 0.0
2014-Sep-23 01:32N 60°09' E 024°55'0 0.0
2014-Sep-23 00:32N 60°09' E 024°55'0 0.0
2014-Sep-22 23:32N 60°09' E 024°55'0 0.0
2014-Sep-22 22:32N 60°09' E 024°55'0 0.0
2014-Sep-22 21:32N 60°09' E 024°55'0 0.0
2014-Sep-22 20:32N 60°09' E 024°55'0 0.0
2014-Sep-22 19:32N 60°09' E 024°55'1 0.8
2014-Sep-22 18:33N 60°09' E 024°54'2221.7
2014-Sep-22 17:33N 59°47' E 024°49'2020.3
2014-Sep-22 16:34N 59°27' E 024°46'0 0.3
2014-Sep-22 15:33N 59°27' E 024°46'1211.6
2014-Sep-22 14:32N 59°38' E 024°40'2017.2
2014-Sep-22 13:23N 59°57' E 024°53'1214.8
2014-Sep-22 12:34N 60°09' E 024°55'0 0.3
2014-Sep-22 11:33N 60°09' E 024°55'2315.5
2014-Sep-22 10:04N 59°46' E 024°50'1120.3
2014-Sep-22 09:30N 59°36' E 024°41'9 6.9
2014-Sep-22 08:09N 59°27' E 024°46'4 7.0
2014-Sep-22 07:30N 59°31' E 024°43'1819.3
2014-Sep-22 06:33N 59°49' E 024°47'1919.2
2014-Sep-22 05:33N 60°08' E 024°54'1 1.1
2014-Sep-22 04:31N 60°09' E 024°55'0 0.0
2014-Sep-22 03:28N 60°09' E 024°55'0 0.0
2014-Sep-22 02:31N 60°09' E 024°55'0 0.0
2014-Sep-22 01:19N 60°09' E 024°55'0 0.0
2014-Sep-22 00:19N 60°09' E 024°55'0 0.0
2014-Sep-21 23:25N 60°09' E 024°55'0 0.0
2014-Sep-21 22:28N 60°09' E 024°55'0 0.0
2014-Sep-21 21:31N 60°09' E 024°55'0 0.0
2014-Sep-21 20:31N 60°09' E 024°55'0 0.0
2014-Sep-21 19:31N 60°09' E 024°55'0 0.3
2014-Sep-21 18:33N 60°09' E 024°55'2020.0
2014-Sep-21 17:33N 59°50' E 024°46'  

Dump ship's entire track history